»·PEaware :: MRR211 CAM5-CZST

MRR211 :: CAM5-CZST

FLIGHT INFORMATION

Flight Status: Arrived
Operator:
San Juan Airlines
More flights by this operator :: More flights under this callsign
Pilot: Robert L. (6895)
Aircraft: MCDONNELL-DOUGLAS DC-6/B LIFTMASTER
(DC6)
More flights by this aircraft type
Origin: CAM5 Houston
Canada
Destination: CZST Stewart
Canada
More flights between these airports :: More routes between these airports
Route: Direct
File this flight plan on PilotEdge
Remarks: Call sign Mariner
Altitude:
(Current/Filed)
12,500ft
Speed:
(Current/Filed)
150kts
Departed: 15-Jan-17 06:32 AM
Arrived: 15-Jan-17 07:23 AM
Distance/Time
Traveled:
142nm/0:51
Distance/Time
To Go:
Arrived

Flight Plot

Page will automatically refresh every two minutes.

Flight plan parsing failed; only flown route is shown


Map Options




Map Legend


Flown Route
Filed Route
Departure Airport
Arrival Airport
Navaid (VOR, NDB)
Fix

Horizontal Profiles

Position Reports

Time Latitude Longitude Heading Altitude Ground
Speed
15-Jan-17 06:31 54.428835 -126.778945 330 2159ft 0kts
15-Jan-17 06:32 54.443159 -126.793204 329 2428ft 136kts
15-Jan-17 06:33 54.480329 -126.842840 297 3447ft 188kts
15-Jan-17 06:34 54.503787 -126.909825 305 5058ft 150kts
15-Jan-17 06:35 54.526081 -126.963339 307 6211ft 139kts
15-Jan-17 06:36 54.549293 -127.014891 307 7328ft 134kts
15-Jan-17 06:37 54.572791 -127.064969 305 8344ft 137kts
15-Jan-17 06:38 54.592899 -127.119389 290 9326ft 137kts
15-Jan-17 06:39 54.609424 -127.178012 290 10310ft 138kts
15-Jan-17 06:40 54.628356 -127.234733 290 11251ft 142kts
15-Jan-17 06:41 54.650077 -127.291933 290 12191ft 148kts
15-Jan-17 06:42 54.673118 -127.349789 290 13183ft 148kts
15-Jan-17 06:43 54.696007 -127.406792 291 14182ft 147kts
15-Jan-17 06:44 54.718963 -127.465939 291 14484ft 178kts
15-Jan-17 06:45 54.745345 -127.540412 291 14476ft 202kts
15-Jan-17 06:46 54.774943 -127.626712 291 14474ft 211kts
15-Jan-17 06:47 54.803590 -127.711374 290 14483ft 215kts
15-Jan-17 06:48 54.831501 -127.794342 290 14490ft 216kts
15-Jan-17 06:49 54.862490 -127.886588 290 14487ft 217kts
15-Jan-17 06:50 54.890823 -127.971031 290 14491ft 216kts
15-Jan-17 06:51 54.921088 -128.062397 290 14521ft 215kts
15-Jan-17 06:52 54.949514 -128.149815 291 14550ft 214kts
15-Jan-17 06:53 54.976297 -128.233655 291 14558ft 213kts
15-Jan-17 06:54 55.004705 -128.324273 291 14557ft 213kts
15-Jan-17 06:55 55.030511 -128.408114 291 14556ft 212kts
15-Jan-17 06:56 55.059785 -128.504710 291 14555ft 211kts
15-Jan-17 06:57 55.087240 -128.595368 291 14555ft 211kts
15-Jan-17 06:58 55.112966 -128.680430 290 14559ft 211kts
15-Jan-17 06:59 55.139758 -128.769439 290 14559ft 211kts
15-Jan-17 07:00 55.166995 -128.859872 290 14558ft 212kts
15-Jan-17 07:01 55.194578 -128.950767 290 14557ft 213kts
15-Jan-17 07:02 55.222943 -129.041750 291 14556ft 215kts
15-Jan-17 07:03 55.252295 -129.133783 291 14472ft 215kts
15-Jan-17 07:04 55.282076 -129.226542 291 14474ft 219kts
15-Jan-17 07:05 55.311944 -129.319770 291 14473ft 220kts
15-Jan-17 07:06 55.341919 -129.413507 291 14471ft 221kts
15-Jan-17 07:07 55.372086 -129.507989 291 14052ft 222kts
15-Jan-17 07:08 55.401773 -129.600891 291 13377ft 214kts
15-Jan-17 07:09 55.429717 -129.688336 290 12706ft 212kts
15-Jan-17 07:10 55.458276 -129.778487 290 12028ft 211kts
15-Jan-17 07:11 55.486848 -129.868881 290 11351ft 213kts
15-Jan-17 07:12 55.499362 -129.969398 276 10495ft 215kts
15-Jan-17 07:13 55.531227 -130.063331 306 9625ft 235kts
15-Jan-17 07:14 55.586984 -130.125205 349 8795ft 263kts
15-Jan-17 07:15 55.660346 -130.120392 354 8107ft 258kts
15-Jan-17 07:16 55.723784 -130.145033 346 7216ft 190kts
15-Jan-17 07:17 55.772084 -130.139700 13 5508ft 156kts
15-Jan-17 07:18 55.807708 -130.109124 32 3603ft 131kts
15-Jan-17 07:19 55.835877 -130.076251 30 2007ft 113kts
15-Jan-17 07:20 55.862329 -130.052357 24 838ft 96kts
15-Jan-17 07:21 55.886610 -130.030030 26 953ft 107kts
15-Jan-17 07:22 55.911633 -130.000658 30 372ft 102kts
15-Jan-17 07:23 55.933685 -129.983717 23 30ft 27kts
15-Jan-17 07:24 55.935525 -129.982746 294 30ft 5kts
15-Jan-17 07:25 55.935900 -129.982991 204 30ft 2kts

Navigation Log

Ident Type
Flight plan parsing failed, navigation log unavailable